createdAt,value
2023-02-05T00:02:56.975Z,81
2023-02-05T00:05:56.990Z,81
2023-02-05T00:08:56.980Z,81
2023-02-05T00:11:56.994Z,81
2023-02-05T00:14:56.989Z,81
2023-02-05T00:17:57.003Z,81
2023-02-05T00:20:56.990Z,81
2023-02-05T00:23:56.983Z,81
2023-02-05T00:26:56.992Z,81
2023-02-05T00:29:56.983Z,81
2023-02-05T00:32:56.998Z,81
2023-02-05T00:35:56.989Z,81
2023-02-05T00:38:56.992Z,81
2023-02-05T00:41:56.992Z,81
2023-02-05T00:44:56.996Z,81
2023-02-05T00:47:57.000Z,81
2023-02-05T00:53:56.994Z,81
2023-02-05T00:56:56.990Z,81
2023-02-05T00:59:56.992Z,82
2023-02-05T01:02:56.992Z,82
2023-02-05T01:05:57.033Z,82
2023-02-05T01:08:57.019Z,82
2023-02-05T01:11:56.999Z,82
2023-02-05T01:14:57.004Z,82
2023-02-05T01:17:57.001Z,82
2023-02-05T01:20:57.018Z,82
2023-02-05T01:23:57.026Z,82
2023-02-05T01:26:57.012Z,82
2023-02-05T01:29:57.006Z,82
2023-02-05T01:32:57.009Z,82
2023-02-05T01:35:57.020Z,82
2023-02-05T01:38:57.012Z,82
2023-02-05T01:41:57.017Z,82
2023-02-05T01:44:57.008Z,82
2023-02-05T01:47:57.018Z,82
2023-02-05T01:50:57.010Z,82
2023-02-05T01:56:57.019Z,82
2023-02-05T01:59:56.999Z,82
2023-02-05T02:02:57.020Z,82
2023-02-05T02:05:56.999Z,82
2023-02-05T02:08:57.008Z,82
2023-02-05T02:11:57.020Z,82
2023-02-05T02:14:57.006Z,82
2023-02-05T02:17:57.019Z,82
2023-02-05T02:20:57.006Z,82
2023-02-05T02:23:57.018Z,82
2023-02-05T02:26:57.029Z,82
2023-02-05T02:29:57.013Z,82
2023-02-05T02:32:57.022Z,82
2023-02-05T02:35:57.025Z,82
2023-02-05T02:38:57.032Z,82
2023-02-05T02:41:57.011Z,82
2023-02-05T02:44:57.018Z,82
2023-02-05T02:47:57.016Z,82
2023-02-05T02:50:57.027Z,82
2023-02-05T02:53:57.033Z,83
2023-02-05T02:56:57.041Z,82
2023-02-05T02:59:57.023Z,82
2023-02-05T03:02:57.035Z,82
2023-02-05T03:05:57.028Z,82
2023-02-05T03:08:57.053Z,82
2023-02-05T03:11:57.035Z,82
2023-02-05T03:14:57.053Z,82
2023-02-05T03:17:57.038Z,83
2023-02-05T03:20:57.063Z,82
2023-02-05T03:23:57.030Z,82
2023-02-05T03:26:57.044Z,82
2023-02-05T03:29:57.041Z,82
2023-02-05T03:32:57.043Z,82
2023-02-05T03:35:57.042Z,82
2023-02-05T03:41:57.071Z,82
2023-02-05T03:44:57.035Z,82
2023-02-05T03:47:57.034Z,82
2023-02-05T03:50:57.036Z,82
2023-02-05T03:53:57.037Z,82
2023-02-05T03:56:57.040Z,82
2023-02-05T03:59:57.037Z,82
2023-02-05T04:02:57.027Z,82
2023-02-05T04:05:57.028Z,82
2023-02-05T04:08:57.042Z,82
2023-02-05T04:11:57.045Z,83
2023-02-05T04:14:57.044Z,83
2023-02-05T04:17:57.039Z,83
2023-02-05T04:20:57.033Z,83
2023-02-05T04:23:57.119Z,83
2023-02-05T04:26:57.035Z,83
2023-02-05T04:29:57.039Z,83
2023-02-05T04:32:57.050Z,83
2023-02-05T04:35:57.055Z,83
2023-02-05T04:38:57.062Z,83
2023-02-05T04:41:57.054Z,83
2023-02-05T04:44:57.046Z,83
2023-02-05T04:47:57.061Z,83
2023-02-05T04:50:57.061Z,83
2023-02-05T04:53:57.043Z,83
2023-02-05T04:56:57.060Z,83
2023-02-05T04:59:57.051Z,83
2023-02-05T05:02:57.050Z,83
2023-02-05T05:05:57.050Z,83
2023-02-05T05:08:57.053Z,83
2023-02-05T05:11:57.052Z,83
2023-02-05T05:14:57.045Z,83
2023-02-05T05:17:57.058Z,83
2023-02-05T05:20:57.046Z,83
2023-02-05T05:23:57.052Z,83
2023-02-05T05:26:57.060Z,83
2023-02-05T05:29:57.063Z,83
2023-02-05T05:32:57.053Z,83
2023-02-05T05:35:57.057Z,83
2023-02-05T05:38:57.059Z,83
2023-02-05T05:41:57.055Z,83
2023-02-05T05:44:57.058Z,83
2023-02-05T05:47:57.072Z,83
2023-02-05T05:50:57.058Z,83
2023-02-05T05:53:57.063Z,83
2023-02-05T05:56:57.057Z,83
2023-02-05T05:59:57.059Z,83
2023-02-05T06:02:57.063Z,83
2023-02-05T06:05:57.053Z,83
2023-02-05T06:08:57.073Z,83
2023-02-05T06:11:57.078Z,83
2023-02-05T06:14:57.059Z,83
2023-02-05T06:17:57.079Z,83
2023-02-05T06:20:57.049Z,83
2023-02-05T06:23:57.056Z,83
2023-02-05T06:26:57.063Z,84
2023-02-05T06:29:57.056Z,84
2023-02-05T06:32:57.074Z,84
2023-02-05T06:35:57.060Z,84
2023-02-05T06:38:57.055Z,84
2023-02-05T06:41:57.078Z,84
2023-02-05T06:44:57.065Z,84
2023-02-05T06:47:57.073Z,84
2023-02-05T06:53:57.074Z,84
2023-02-05T06:56:57.078Z,84
2023-02-05T06:59:57.070Z,84
2023-02-05T07:02:57.125Z,84
2023-02-05T07:05:57.120Z,84
2023-02-05T07:08:57.125Z,84
2023-02-05T07:11:57.118Z,84
2023-02-05T07:14:57.120Z,84
2023-02-05T07:17:57.126Z,84
2023-02-05T07:20:57.123Z,84
2023-02-05T07:23:57.126Z,84
2023-02-05T07:26:57.120Z,84
2023-02-05T07:29:57.133Z,84
2023-02-05T07:32:57.126Z,84
2023-02-05T07:35:57.131Z,84
2023-02-05T07:38:57.124Z,84
2023-02-05T07:41:57.132Z,85
2023-02-05T07:44:57.137Z,85
2023-02-05T07:47:57.122Z,85
2023-02-05T07:50:57.117Z,85
2023-02-05T07:53:57.132Z,85
2023-02-05T07:56:57.132Z,85
2023-02-05T07:59:57.114Z,85
2023-02-05T08:02:57.124Z,85
2023-02-05T08:05:57.126Z,85
2023-02-05T08:08:57.129Z,85
2023-02-05T08:11:57.121Z,85
2023-02-05T08:14:57.121Z,85
2023-02-05T08:17:57.112Z,85
2023-02-05T08:20:57.127Z,85
2023-02-05T08:23:57.132Z,85
2023-02-05T08:26:57.131Z,85
2023-02-05T08:29:57.121Z,85
2023-02-05T08:32:57.142Z,85
2023-02-05T08:35:57.133Z,85
2023-02-05T08:38:57.166Z,85
2023-02-05T08:41:57.260Z,85
2023-02-05T08:44:57.122Z,85
2023-02-05T08:47:57.136Z,85
2023-02-05T08:50:57.122Z,85
2023-02-05T08:53:57.127Z,85
2023-02-05T08:56:57.135Z,85
2023-02-05T08:59:57.135Z,85
2023-02-05T09:02:57.140Z,85
2023-02-05T09:05:57.132Z,85
2023-02-05T09:08:57.132Z,85
2023-02-05T09:11:57.134Z,85
2023-02-05T09:14:57.146Z,85
2023-02-05T09:17:57.137Z,85
2023-02-05T09:20:57.135Z,85
2023-02-05T09:23:57.132Z,85
2023-02-05T09:26:57.140Z,85
2023-02-05T09:29:57.142Z,85
2023-02-05T09:32:57.138Z,86
2023-02-05T09:35:57.148Z,86
2023-02-05T09:39:12.216Z,86
2023-02-05T09:41:57.215Z,86
2023-02-05T09:44:57.145Z,86
2023-02-05T09:47:57.145Z,86
2023-02-05T09:50:58.042Z,86
2023-02-05T09:53:57.151Z,86
2023-02-05T09:56:57.153Z,86
2023-02-05T09:59:57.147Z,86
2023-02-05T10:02:57.142Z,86
2023-02-05T10:05:57.142Z,86
2023-02-05T10:08:57.134Z,86
2023-02-05T10:11:57.150Z,86
2023-02-05T10:14:57.142Z,86
2023-02-05T10:17:57.160Z,86
2023-02-05T10:20:57.138Z,86
2023-02-05T10:23:57.163Z,86
2023-02-05T10:26:57.162Z,86
2023-02-05T10:29:57.145Z,86
2023-02-05T10:32:57.159Z,86
2023-02-05T10:35:57.166Z,86
2023-02-05T10:38:57.191Z,86
2023-02-05T10:41:57.167Z,86
2023-02-05T10:44:57.148Z,86
2023-02-05T10:47:57.150Z,86
2023-02-05T10:50:57.148Z,86
2023-02-05T10:53:57.175Z,86
2023-02-05T10:56:57.158Z,86
2023-02-05T10:59:57.168Z,86
2023-02-05T11:02:57.169Z,86
2023-02-05T11:08:57.175Z,86
2023-02-05T11:11:57.176Z,86
2023-02-05T11:14:57.166Z,86
2023-02-05T11:17:57.161Z,86
2023-02-05T11:20:57.158Z,86
2023-02-05T11:23:57.160Z,86
2023-02-05T11:26:57.167Z,86
2023-02-05T11:29:57.171Z,86
2023-02-05T11:32:57.172Z,86
2023-02-05T11:35:57.181Z,86
2023-02-05T11:38:57.196Z,86
2023-02-05T11:41:57.160Z,86
2023-02-05T11:44:57.161Z,86
2023-02-05T11:47:57.158Z,86
2023-02-05T11:50:57.161Z,86
2023-02-05T11:53:57.170Z,87
2023-02-05T11:56:57.174Z,87
2023-02-05T11:59:57.162Z,87
2023-02-05T12:02:57.214Z,87
2023-02-05T12:05:57.166Z,87
2023-02-05T12:08:57.172Z,87
2023-02-05T12:11:57.181Z,87
2023-02-05T12:14:57.163Z,87
2023-02-05T12:17:57.183Z,87
2023-02-05T12:20:57.173Z,87
2023-02-05T12:23:57.204Z,87
2023-02-05T12:26:57.180Z,87
2023-02-05T12:29:57.167Z,87
2023-02-05T12:35:57.171Z,87
2023-02-05T12:38:57.185Z,87
2023-02-05T12:41:57.177Z,87
2023-02-05T12:44:57.202Z,87
2023-02-05T12:47:57.177Z,87
2023-02-05T12:50:57.172Z,87
2023-02-05T12:53:57.191Z,87
2023-02-05T12:56:57.189Z,87
2023-02-05T12:59:57.183Z,87
2023-02-05T13:02:57.188Z,87
2023-02-05T13:05:57.171Z,87
2023-02-05T13:08:57.199Z,87
2023-02-05T13:11:57.195Z,87
2023-02-05T13:14:57.183Z,87
2023-02-05T13:17:57.183Z,87
2023-02-05T13:20:57.189Z,87
2023-02-05T13:23:57.200Z,87
2023-02-05T13:26:57.188Z,87
2023-02-05T13:29:57.193Z,87
2023-02-05T13:32:57.198Z,87
2023-02-05T13:35:57.194Z,87
2023-02-05T13:38:57.219Z,87
2023-02-05T13:41:57.180Z,87
2023-02-05T13:44:57.199Z,87
2023-02-05T13:47:57.188Z,87
2023-02-05T13:50:57.199Z,87
2023-02-05T13:53:57.201Z,87
2023-02-05T13:56:57.201Z,87
2023-02-05T13:59:57.192Z,87
2023-02-05T14:02:57.195Z,87
2023-02-05T14:05:57.197Z,87
2023-02-05T14:08:57.195Z,87
2023-02-05T14:11:57.194Z,86
2023-02-05T14:14:57.319Z,86
2023-02-05T14:17:57.193Z,86
2023-02-05T14:20:57.202Z,86
2023-02-05T14:23:57.214Z,86
2023-02-05T14:26:57.212Z,86
2023-02-05T14:29:57.202Z,87
2023-02-05T14:32:57.210Z,86
2023-02-05T14:35:57.222Z,86
2023-02-05T14:38:57.228Z,86
2023-02-05T14:41:57.218Z,86
2023-02-05T14:44:57.243Z,86
2023-02-05T14:47:57.209Z,87
2023-02-05T14:50:57.204Z,87
2023-02-05T14:53:57.221Z,87
2023-02-05T14:56:57.208Z,87
2023-02-05T14:59:57.215Z,87
2023-02-05T15:02:57.228Z,87
2023-02-05T15:05:57.210Z,87
2023-02-05T15:08:57.242Z,87
2023-02-05T15:11:57.228Z,87
2023-02-05T15:14:57.216Z,87
2023-02-05T15:17:57.214Z,87
2023-02-05T15:20:57.234Z,87
2023-02-05T15:23:57.225Z,87
2023-02-05T15:26:57.236Z,87
2023-02-05T15:29:57.559Z,87
2023-02-05T15:32:57.227Z,87
2023-02-05T15:35:57.228Z,87
2023-02-05T15:38:57.244Z,87
2023-02-05T15:41:57.242Z,87
2023-02-05T15:44:57.228Z,87
2023-02-05T15:47:57.234Z,87
2023-02-05T15:50:57.263Z,87
2023-02-05T15:53:57.246Z,87
2023-02-05T15:56:57.248Z,87
2023-02-05T15:59:57.225Z,87
2023-02-05T16:02:57.270Z,87
2023-02-05T16:05:57.245Z,87
2023-02-05T16:08:57.254Z,87
2023-02-05T16:11:57.249Z,87
2023-02-05T16:14:57.236Z,87
2023-02-05T16:17:57.236Z,87
2023-02-05T16:20:57.244Z,87
2023-02-05T16:23:57.267Z,87
2023-02-05T16:26:57.230Z,87
2023-02-05T16:29:57.229Z,87
2023-02-05T16:32:57.242Z,87
2023-02-05T16:35:57.233Z,87
2023-02-05T16:38:57.275Z,87
2023-02-05T16:41:57.230Z,87
2023-02-05T16:44:57.234Z,87
2023-02-05T16:47:57.235Z,87
2023-02-05T16:50:57.244Z,87
2023-02-05T16:53:57.235Z,87
2023-02-05T16:56:57.230Z,87
2023-02-05T16:59:57.228Z,87
2023-02-05T17:02:57.232Z,87
2023-02-05T17:05:57.253Z,87
2023-02-05T17:08:57.279Z,87
2023-02-05T17:11:57.230Z,87
2023-02-05T17:14:57.252Z,87
2023-02-05T17:17:57.245Z,87
2023-02-05T17:20:57.250Z,87
2023-02-05T17:23:57.249Z,87
2023-02-05T17:26:57.252Z,87
2023-02-05T17:29:57.337Z,87
2023-02-05T17:32:57.248Z,87
2023-02-05T17:35:57.274Z,87
2023-02-05T17:38:57.257Z,87
2023-02-05T17:41:57.257Z,87
2023-02-05T17:44:57.256Z,87
2023-02-05T17:47:57.254Z,87
2023-02-05T17:50:57.252Z,87
2023-02-05T17:53:57.259Z,87
2023-02-05T17:56:57.251Z,87
2023-02-05T17:59:57.244Z,87
2023-02-05T18:02:57.288Z,87
2023-02-05T18:05:57.260Z,87
2023-02-05T18:08:57.282Z,87
2023-02-05T18:11:57.269Z,87
2023-02-05T18:14:57.267Z,87
2023-02-05T18:17:57.267Z,87
2023-02-05T18:20:57.281Z,87
2023-02-05T18:23:57.268Z,87
2023-02-05T18:26:57.263Z,87
2023-02-05T18:29:57.272Z,87
2023-02-05T18:32:57.268Z,87
2023-02-05T18:35:57.268Z,87
2023-02-05T18:38:57.274Z,87
2023-02-05T18:41:57.280Z,87
2023-02-05T18:44:57.264Z,87
2023-02-05T18:47:57.266Z,87
2023-02-05T18:50:57.277Z,87
2023-02-05T18:53:57.277Z,87
2023-02-05T18:56:57.269Z,87
2023-02-05T18:59:57.274Z,87
2023-02-05T19:02:57.265Z,87
2023-02-05T19:05:57.265Z,87
2023-02-05T19:08:57.285Z,87
2023-02-05T19:11:57.262Z,87
2023-02-05T19:14:57.267Z,87
2023-02-05T19:20:57.263Z,87
2023-02-05T19:23:57.296Z,87
2023-02-05T19:26:57.263Z,87
2023-02-05T19:29:57.297Z,87
2023-02-05T19:32:57.258Z,87
2023-02-05T19:35:57.274Z,87
2023-02-05T19:38:57.273Z,87
2023-02-05T19:41:57.280Z,87
2023-02-05T19:44:57.270Z,87
2023-02-05T19:47:57.264Z,87
2023-02-05T19:50:57.281Z,87
2023-02-05T19:53:57.287Z,87
2023-02-05T19:56:57.278Z,87
2023-02-05T19:59:57.278Z,87
2023-02-05T20:02:57.289Z,87
2023-02-05T20:05:57.283Z,87
2023-02-05T20:08:57.280Z,87
2023-02-05T20:11:57.302Z,87
2023-02-05T20:14:57.281Z,87
2023-02-05T20:17:58.558Z,87
2023-02-05T20:20:57.278Z,87
2023-02-05T20:23:57.282Z,87
2023-02-05T20:26:57.286Z,87
2023-02-05T20:29:57.274Z,87
2023-02-05T20:32:57.273Z,87
2023-02-05T20:35:57.278Z,87
2023-02-05T20:38:57.288Z,87
2023-02-05T20:41:57.296Z,87
2023-02-05T20:44:57.304Z,87
2023-02-05T20:47:57.298Z,87
2023-02-05T20:50:57.288Z,87
2023-02-05T20:53:57.283Z,87
2023-02-05T20:56:57.302Z,87
2023-02-05T20:59:57.280Z,87
2023-02-05T21:02:57.289Z,87
2023-02-05T21:05:57.290Z,87
2023-02-05T21:08:57.301Z,88
2023-02-05T21:11:57.308Z,87
2023-02-05T21:14:57.284Z,87
2023-02-05T21:17:57.290Z,87
2023-02-05T21:20:57.300Z,87
2023-02-05T21:23:57.299Z,87
2023-02-05T21:26:57.304Z,87
2023-02-05T21:29:57.299Z,88
2023-02-05T21:32:57.296Z,88
2023-02-05T21:35:57.303Z,88
2023-02-05T21:38:57.301Z,88
2023-02-05T21:41:57.301Z,88
2023-02-05T21:44:57.293Z,88
2023-02-05T21:47:57.302Z,88
2023-02-05T21:50:57.286Z,88
2023-02-05T21:53:57.417Z,88
2023-02-05T21:56:57.294Z,88
2023-02-05T21:59:57.307Z,88
2023-02-05T22:02:57.310Z,88
2023-02-05T22:05:57.302Z,88
2023-02-05T22:08:57.325Z,88
2023-02-05T22:11:57.309Z,88
2023-02-05T22:14:57.309Z,88
2023-02-05T22:17:57.303Z,88
2023-02-05T22:20:57.318Z,88
2023-02-05T22:23:57.292Z,88
2023-02-05T22:26:57.327Z,88
2023-02-05T22:29:57.311Z,88
2023-02-05T22:32:57.311Z,88
2023-02-05T22:35:57.290Z,88
2023-02-05T22:38:57.320Z,88
2023-02-05T22:41:57.297Z,88
2023-02-05T22:44:57.310Z,88
2023-02-05T22:47:57.380Z,88
2023-02-05T22:50:57.323Z,88
2023-02-05T22:53:57.328Z,88
2023-02-05T22:56:57.331Z,88
2023-02-05T22:59:57.310Z,88
2023-02-05T23:02:57.313Z,88
2023-02-05T23:05:57.311Z,88
2023-02-05T23:08:57.337Z,87
2023-02-05T23:11:57.314Z,88
2023-02-05T23:14:57.314Z,88
2023-02-05T23:17:57.309Z,88
2023-02-05T23:20:57.336Z,88
2023-02-05T23:23:57.317Z,88
2023-02-05T23:26:57.312Z,88
2023-02-05T23:29:57.312Z,88
2023-02-05T23:32:57.318Z,88
2023-02-05T23:35:57.313Z,88
2023-02-05T23:38:57.315Z,88
2023-02-05T23:41:57.333Z,88
2023-02-05T23:44:57.322Z,88
2023-02-05T23:47:57.316Z,88
2023-02-05T23:50:57.325Z,88
2023-02-05T23:53:57.318Z,88
2023-02-05T23:56:57.325Z,88
2023-02-05T23:59:57.316Z,88
